sensor_id;sensor_type;location;lat;lon;timestamp;P1;durP1;ratioP1;P2;durP2;ratioP2
16954;SDS011;8594;52.052;8.354;2023-06-22T07:36:42;23.90;;;14.97;;
16954;SDS011;8594;52.052;8.354;2023-06-22T07:39:10;20.47;;;14.70;;
16954;SDS011;8594;52.052;8.354;2023-06-22T07:41:38;21.57;;;16.60;;
16954;SDS011;8594;52.052;8.354;2023-06-22T07:44:06;24.33;;;16.20;;
16954;SDS011;8594;52.052;8.354;2023-06-22T07:46:33;23.97;;;16.80;;
16954;SDS011;8594;52.052;8.354;2023-06-22T07:49:00;27.00;;;16.90;;
16954;SDS011;8594;52.052;8.354;2023-06-22T07:51:27;28.53;;;17.27;;
16954;SDS011;8594;52.052;8.354;2023-06-22T07:53:55;23.57;;;17.27;;
16954;SDS011;8594;52.052;8.354;2023-06-22T07:56:22;27.60;;;17.60;;
16954;SDS011;8594;52.052;8.354;2023-06-22T07:58:49;25.80;;;16.70;;
16954;SDS011;8594;52.052;8.354;2023-06-22T08:01:16;28.63;;;18.27;;
16954;SDS011;8594;52.052;8.354;2023-06-22T08:03:46;22.60;;;16.83;;
16954;SDS011;8594;52.052;8.354;2023-06-22T08:06:13;22.93;;;17.07;;
16954;SDS011;8594;52.052;8.354;2023-06-22T08:08:41;23.70;;;16.30;;
16954;SDS011;8594;52.052;8.354;2023-06-22T08:11:09;21.43;;;14.67;;
16954;SDS011;8594;52.052;8.354;2023-06-22T08:13:36;22.97;;;15.03;;
16954;SDS011;8594;52.052;8.354;2023-06-22T08:16:03;18.90;;;13.60;;
16954;SDS011;8594;52.052;8.354;2023-06-22T08:18:32;19.57;;;14.07;;
16954;SDS011;8594;52.052;8.354;2023-06-22T08:20:59;19.90;;;13.20;;
16954;SDS011;8594;52.052;8.354;2023-06-22T08:23:26;17.93;;;13.47;;
16954;SDS011;8594;52.052;8.354;2023-06-22T08:25:53;18.93;;;14.00;;
16954;SDS011;8594;52.052;8.354;2023-06-22T08:28:21;19.07;;;13.20;;
16954;SDS011;8594;52.052;8.354;2023-06-22T08:30:48;19.00;;;13.53;;
16954;SDS011;8594;52.052;8.354;2023-06-22T08:33:15;19.40;;;12.57;;
16954;SDS011;8594;52.052;8.354;2023-06-22T08:35:42;21.40;;;11.97;;
16954;SDS011;8594;52.052;8.354;2023-06-22T08:38:09;20.37;;;12.57;;
16954;SDS011;8594;52.052;8.354;2023-06-22T08:40:40;17.83;;;12.50;;
16954;SDS011;8594;52.052;8.354;2023-06-22T08:43:07;17.40;;;12.97;;
16954;SDS011;8594;52.052;8.354;2023-06-22T08:45:35;22.63;;;15.77;;
16954;SDS011;8594;52.052;8.354;2023-06-22T08:48:02;21.17;;;14.57;;
16954;SDS011;8594;52.052;8.354;2023-06-22T08:50:29;21.80;;;16.50;;
16954;SDS011;8594;52.052;8.354;2023-06-22T08:52:56;20.37;;;13.70;;
16954;SDS011;8594;52.052;8.354;2023-06-22T08:55:23;22.13;;;16.10;;
16954;SDS011;8594;52.052;8.354;2023-06-22T08:57:49;22.00;;;14.27;;
16954;SDS011;8594;52.052;8.354;2023-06-22T09:00:17;21.00;;;14.90;;
16954;SDS011;8594;52.052;8.354;2023-06-22T09:02:46;20.80;;;15.27;;
16954;SDS011;8594;52.052;8.354;2023-06-22T09:05:14;20.00;;;14.57;;
16954;SDS011;8594;52.052;8.354;2023-06-22T09:07:41;20.07;;;14.80;;
16954;SDS011;8594;52.052;8.354;2023-06-22T09:10:08;20.57;;;14.70;;
16954;SDS011;8594;52.052;8.354;2023-06-22T09:12:36;18.63;;;13.50;;
16954;SDS011;8594;52.052;8.354;2023-06-22T09:15:03;20.20;;;13.70;;
16954;SDS011;8594;52.052;8.354;2023-06-22T09:17:32;18.73;;;14.13;;
16954;SDS011;8594;52.052;8.354;2023-06-22T09:20:02;22.30;;;15.30;;
16954;SDS011;8594;52.052;8.354;2023-06-22T09:36:30;21.20;;;16.07;;
16954;SDS011;8594;52.052;8.354;2023-06-22T09:38:57;20.27;;;15.30;;
16954;SDS011;8594;52.052;8.354;2023-06-22T09:41:24;21.10;;;14.87;;
16954;SDS011;8594;52.052;8.354;2023-06-22T09:43:51;18.47;;;14.57;;
16954;SDS011;8594;52.052;8.354;2023-06-22T09:46:18;18.53;;;14.20;;
16954;SDS011;8594;52.052;8.354;2023-06-22T09:48:46;19.03;;;13.23;;
16954;SDS011;8594;52.052;8.354;2023-06-22T09:51:13;16.97;;;13.13;;
16954;SDS011;8594;52.052;8.354;2023-06-22T09:53:41;14.40;;;11.73;;
16954;SDS011;8594;52.052;8.354;2023-06-22T09:56:09;12.70;;;10.23;;
16954;SDS011;8594;52.052;8.354;2023-06-22T09:58:39;18.13;;;12.20;;
16954;SDS011;8594;52.052;8.354;2023-06-22T10:01:07;14.87;;;11.03;;
16954;SDS011;8594;52.052;8.354;2023-06-22T10:03:34;13.17;;;11.23;;
16954;SDS011;8594;52.052;8.354;2023-06-22T10:06:01;14.30;;;11.80;;
16954;SDS011;8594;52.052;8.354;2023-06-22T10:08:29;12.07;;;9.67;;
16954;SDS011;8594;52.052;8.354;2023-06-22T10:10:57;12.10;;;8.67;;
16954;SDS011;8594;52.052;8.354;2023-06-22T10:13:24;14.70;;;11.43;;
16954;SDS011;8594;52.052;8.354;2023-06-22T10:15:51;18.30;;;11.83;;
16954;SDS011;8594;52.052;8.354;2023-06-22T10:18:18;20.93;;;13.33;;
16954;SDS011;8594;52.052;8.354;2023-06-22T10:20:46;15.83;;;13.23;;
16954;SDS011;8594;52.052;8.354;2023-06-22T10:23:17;17.67;;;13.27;;
16954;SDS011;8594;52.052;8.354;2023-06-22T10:25:44;18.70;;;12.00;;
16954;SDS011;8594;52.052;8.354;2023-06-22T10:28:12;15.13;;;12.30;;
16954;SDS011;8594;52.052;8.354;2023-06-22T10:30:39;14.10;;;10.87;;
16954;SDS011;8594;52.052;8.354;2023-06-22T10:33:07;17.13;;;13.63;;
16954;SDS011;8594;52.052;8.354;2023-06-22T10:35:33;22.67;;;11.93;;
16954;SDS011;8594;52.052;8.354;2023-06-22T10:38:02;26.80;;;13.80;;
16954;SDS011;8594;52.052;8.354;2023-06-22T10:40:29;16.53;;;12.37;;
16954;SDS011;8594;52.052;8.354;2023-06-22T10:42:57;16.80;;;11.73;;
16954;SDS011;8594;52.052;8.354;2023-06-22T10:45:25;14.87;;;11.50;;
16954;SDS011;8594;52.052;8.354;2023-06-22T10:47:52;14.20;;;11.93;;
16954;SDS011;8594;52.052;8.354;2023-06-22T10:50:19;20.33;;;13.70;;
16954;SDS011;8594;52.052;8.354;2023-06-22T10:52:48;17.03;;;12.23;;
16954;SDS011;8594;52.052;8.354;2023-06-22T10:55:15;17.27;;;13.17;;
16954;SDS011;8594;52.052;8.354;2023-06-22T10:57:42;17.10;;;14.13;;
16954;SDS011;8594;52.052;8.354;2023-06-22T11:00:12;22.23;;;13.73;;
16954;SDS011;8594;52.052;8.354;2023-06-22T11:02:42;18.83;;;14.77;;
16954;SDS011;8594;52.052;8.354;2023-06-22T11:05:08;21.53;;;14.40;;
16954;SDS011;8594;52.052;8.354;2023-06-22T11:07:36;20.47;;;15.67;;
16954;SDS011;8594;52.052;8.354;2023-06-22T11:10:04;19.43;;;14.97;;
16954;SDS011;8594;52.052;8.354;2023-06-22T11:12:32;15.47;;;12.10;;
16954;SDS011;8594;52.052;8.354;2023-06-22T11:14:59;17.03;;;12.50;;
16954;SDS011;8594;52.052;8.354;2023-06-22T11:17:26;15.20;;;11.70;;
16954;SDS011;8594;52.052;8.354;2023-06-22T11:19:54;17.67;;;12.57;;
16954;SDS011;8594;52.052;8.354;2023-06-22T11:22:21;23.53;;;15.47;;
16954;SDS011;8594;52.052;8.354;2023-06-22T11:24:47;17.53;;;13.03;;
16954;SDS011;8594;52.052;8.354;2023-06-22T11:27:14;16.70;;;13.10;;
16954;SDS011;8594;52.052;8.354;2023-06-22T11:29:41;19.33;;;13.10;;
16954;SDS011;8594;52.052;8.354;2023-06-22T11:32:08;20.17;;;14.23;;
16954;SDS011;8594;52.052;8.354;2023-06-22T11:34:35;20.60;;;14.53;;
16954;SDS011;8594;52.052;8.354;2023-06-22T11:37:03;18.90;;;15.60;;
16954;SDS011;8594;52.052;8.354;2023-06-22T11:39:30;17.77;;;13.93;;
16954;SDS011;8594;52.052;8.354;2023-06-22T11:41:57;16.67;;;13.00;;
16954;SDS011;8594;52.052;8.354;2023-06-22T11:44:24;21.90;;;14.43;;
16954;SDS011;8594;52.052;8.354;2023-06-22T11:46:51;20.60;;;14.50;;
16954;SDS011;8594;52.052;8.354;2023-06-22T11:49:18;20.33;;;14.17;;
16954;SDS011;8594;52.052;8.354;2023-06-22T11:51:44;20.67;;;14.17;;
16954;SDS011;8594;52.052;8.354;2023-06-22T11:54:13;20.60;;;15.60;;
16954;SDS011;8594;52.052;8.354;2023-06-22T11:56:39;20.07;;;14.13;;
16954;SDS011;8594;52.052;8.354;2023-06-22T11:59:06;18.30;;;13.40;;
16954;SDS011;8594;52.052;8.354;2023-06-22T12:01:33;21.60;;;15.10;;
16954;SDS011;8594;52.052;8.354;2023-06-22T12:04:00;20.83;;;14.07;;
16954;SDS011;8594;52.052;8.354;2023-06-22T12:06:30;18.60;;;12.67;;
16954;SDS011;8594;52.052;8.354;2023-06-22T12:08:57;21.27;;;14.67;;
16954;SDS011;8594;52.052;8.354;2023-06-22T12:11:25;19.90;;;15.67;;
16954;SDS011;8594;52.052;8.354;2023-06-22T12:13:52;20.80;;;14.23;;
16954;SDS011;8594;52.052;8.354;2023-06-22T12:16:19;18.60;;;13.97;;
16954;SDS011;8594;52.052;8.354;2023-06-22T12:18:46;19.23;;;14.23;;
16954;SDS011;8594;52.052;8.354;2023-06-22T12:21:13;15.73;;;12.53;;
16954;SDS011;8594;52.052;8.354;2023-06-22T12:23:40;19.70;;;14.00;;
16954;SDS011;8594;52.052;8.354;2023-06-22T12:26:07;19.37;;;14.03;;
16954;SDS011;8594;52.052;8.354;2023-06-22T12:28:35;17.30;;;13.70;;
16954;SDS011;8594;52.052;8.354;2023-06-22T12:31:02;20.63;;;14.77;;
16954;SDS011;8594;52.052;8.354;2023-06-22T12:33:29;18.90;;;14.80;;
16954;SDS011;8594;52.052;8.354;2023-06-22T12:35:56;19.37;;;13.40;;
16954;SDS011;8594;52.052;8.354;2023-06-22T12:38:23;19.57;;;14.43;;
16954;SDS011;8594;52.052;8.354;2023-06-22T12:40:50;20.37;;;14.77;;
16954;SDS011;8594;52.052;8.354;2023-06-22T12:43:17;24.30;;;15.57;;
16954;SDS011;8594;52.052;8.354;2023-06-22T12:45:45;25.97;;;16.83;;
16954;SDS011;8594;52.052;8.354;2023-06-22T12:48:12;21.70;;;17.33;;
16954;SDS011;8594;52.052;8.354;2023-06-22T12:50:39;25.93;;;17.87;;
16954;SDS011;8594;52.052;8.354;2023-06-22T12:53:06;27.60;;;19.40;;
16954;SDS011;8594;52.052;8.354;2023-06-22T12:55:32;27.93;;;19.70;;
16954;SDS011;8594;52.052;8.354;2023-06-22T12:57:59;26.23;;;18.73;;
16954;SDS011;8594;52.052;8.354;2023-06-22T13:00:26;26.03;;;18.93;;
16954;SDS011;8594;52.052;8.354;2023-06-22T13:02:54;24.03;;;17.80;;
16954;SDS011;8594;52.052;8.354;2023-06-22T13:05:21;23.70;;;17.60;;
16954;SDS011;8594;52.052;8.354;2023-06-22T13:07:48;22.83;;;17.43;;
16954;SDS011;8594;52.052;8.354;2023-06-22T13:10:15;21.13;;;16.17;;
16954;SDS011;8594;52.052;8.354;2023-06-22T13:12:42;24.53;;;17.17;;
16954;SDS011;8594;52.052;8.354;2023-06-22T13:15:09;20.77;;;15.53;;
16954;SDS011;8594;52.052;8.354;2023-06-22T13:17:35;21.20;;;16.40;;
16954;SDS011;8594;52.052;8.354;2023-06-22T13:20:04;23.50;;;16.23;;
16954;SDS011;8594;52.052;8.354;2023-06-22T13:22:33;26.47;;;18.67;;
16954;SDS011;8594;52.052;8.354;2023-06-22T13:25:06;24.30;;;17.47;;
16954;SDS011;8594;52.052;8.354;2023-06-22T13:27:36;27.87;;;18.43;;
16954;SDS011;8594;52.052;8.354;2023-06-22T13:30:04;28.07;;;19.57;;
16954;SDS011;8594;52.052;8.354;2023-06-22T13:32:32;26.27;;;18.87;;
16954;SDS011;8594;52.052;8.354;2023-06-22T13:34:59;24.17;;;19.17;;
16954;SDS011;8594;52.052;8.354;2023-06-22T13:37:27;29.87;;;19.70;;
16954;SDS011;8594;52.052;8.354;2023-06-22T13:39:54;26.87;;;19.87;;
16954;SDS011;8594;52.052;8.354;2023-06-22T13:42:24;28.73;;;21.10;;
16954;SDS011;8594;52.052;8.354;2023-06-22T13:44:51;24.33;;;18.10;;
16954;SDS011;8594;52.052;8.354;2023-06-22T13:47:17;26.50;;;20.07;;
16954;SDS011;8594;52.052;8.354;2023-06-22T13:49:44;29.70;;;20.07;;
16954;SDS011;8594;52.052;8.354;2023-06-22T13:52:11;27.63;;;20.10;;
16954;SDS011;8594;52.052;8.354;2023-06-22T13:54:39;28.43;;;20.17;;
16954;SDS011;8594;52.052;8.354;2023-06-22T13:57:06;27.30;;;19.13;;
16954;SDS011;8594;52.052;8.354;2023-06-22T13:59:34;27.63;;;20.40;;
16954;SDS011;8594;52.052;8.354;2023-06-22T14:02:01;26.80;;;20.67;;
16954;SDS011;8594;52.052;8.354;2023-06-22T14:04:28;32.07;;;24.23;;
16954;SDS011;8594;52.052;8.354;2023-06-22T14:06:55;36.77;;;25.40;;
16954;SDS011;8594;52.052;8.354;2023-06-22T14:09:22;33.27;;;24.40;;
16954;SDS011;8594;52.052;8.354;2023-06-22T14:11:50;29.23;;;23.27;;
16954;SDS011;8594;52.052;8.354;2023-06-22T14:14:17;27.73;;;21.87;;
16954;SDS011;8594;52.052;8.354;2023-06-22T14:16:43;32.07;;;21.53;;
16954;SDS011;8594;52.052;8.354;2023-06-22T14:19:10;27.27;;;21.50;;
16954;SDS011;8594;52.052;8.354;2023-06-22T14:21:37;29.60;;;20.70;;
16954;SDS011;8594;52.052;8.354;2023-06-22T14:24:04;30.13;;;20.73;;
16954;SDS011;8594;52.052;8.354;2023-06-22T14:26:31;30.40;;;21.60;;
16954;SDS011;8594;52.052;8.354;2023-06-22T14:28:59;29.40;;;21.97;;
16954;SDS011;8594;52.052;8.354;2023-06-22T14:31:26;27.07;;;21.73;;
16954;SDS011;8594;52.052;8.354;2023-06-22T14:33:52;27.00;;;20.17;;
16954;SDS011;8594;52.052;8.354;2023-06-22T14:36:19;29.07;;;21.80;;
16954;SDS011;8594;52.052;8.354;2023-06-22T14:38:46;26.53;;;20.47;;
16954;SDS011;8594;52.052;8.354;2023-06-22T14:41:13;29.87;;;21.47;;
16954;SDS011;8594;52.052;8.354;2023-06-22T14:43:44;33.23;;;22.63;;
16954;SDS011;8594;52.052;8.354;2023-06-22T14:46:13;26.17;;;20.67;;
16954;SDS011;8594;52.052;8.354;2023-06-22T14:48:40;31.90;;;22.73;;
16954;SDS011;8594;52.052;8.354;2023-06-22T14:51:07;32.83;;;21.67;;
16954;SDS011;8594;52.052;8.354;2023-06-22T14:53:34;29.33;;;20.80;;
16954;SDS011;8594;52.052;8.354;2023-06-22T14:56:02;30.23;;;20.43;;
16954;SDS011;8594;52.052;8.354;2023-06-22T14:58:30;28.83;;;19.73;;
16954;SDS011;8594;52.052;8.354;2023-06-22T15:00:58;25.13;;;19.77;;
16954;SDS011;8594;52.052;8.354;2023-06-22T15:03:27;26.20;;;18.13;;
16954;SDS011;8594;52.052;8.354;2023-06-22T15:05:55;26.33;;;18.70;;
16954;SDS011;8594;52.052;8.354;2023-06-22T15:08:23;27.40;;;19.10;;
16954;SDS011;8594;52.052;8.354;2023-06-22T15:10:50;22.90;;;17.97;;
16954;SDS011;8594;52.052;8.354;2023-06-22T15:13:17;23.07;;;17.63;;
16954;SDS011;8594;52.052;8.354;2023-06-22T15:15:45;25.37;;;16.73;;
16954;SDS011;8594;52.052;8.354;2023-06-22T15:18:13;24.60;;;17.50;;
16954;SDS011;8594;52.052;8.354;2023-06-22T15:20:41;23.47;;;16.73;;
16954;SDS011;8594;52.052;8.354;2023-06-22T15:23:10;18.50;;;14.73;;
16954;SDS011;8594;52.052;8.354;2023-06-22T15:25:37;22.13;;;16.03;;
16954;SDS011;8594;52.052;8.354;2023-06-22T15:28:04;22.07;;;16.73;;
16954;SDS011;8594;52.052;8.354;2023-06-22T15:30:31;20.53;;;16.53;;
16954;SDS011;8594;52.052;8.354;2023-06-22T15:32:58;24.10;;;17.73;;
16954;SDS011;8594;52.052;8.354;2023-06-22T15:35:26;22.83;;;17.13;;
16954;SDS011;8594;52.052;8.354;2023-06-22T15:37:54;22.67;;;17.83;;
16954;SDS011;8594;52.052;8.354;2023-06-22T15:40:21;24.67;;;17.83;;
16954;SDS011;8594;52.052;8.354;2023-06-22T15:42:49;23.03;;;17.37;;
16954;SDS011;8594;52.052;8.354;2023-06-22T15:45:16;23.77;;;17.83;;
16954;SDS011;8594;52.052;8.354;2023-06-22T15:47:43;23.73;;;17.43;;
16954;SDS011;8594;52.052;8.354;2023-06-22T15:50:10;22.97;;;17.70;;
16954;SDS011;8594;52.052;8.354;2023-06-22T15:52:37;24.03;;;17.47;;
16954;SDS011;8594;52.052;8.354;2023-06-22T15:55:07;25.50;;;18.13;;
16954;SDS011;8594;52.052;8.354;2023-06-22T15:57:35;25.50;;;19.13;;
16954;SDS011;8594;52.052;8.354;2023-06-22T16:00:02;27.27;;;19.70;;
16954;SDS011;8594;52.052;8.354;2023-06-22T16:02:30;29.27;;;19.97;;
16954;SDS011;8594;52.052;8.354;2023-06-22T16:04:57;28.73;;;20.47;;
16954;SDS011;8594;52.052;8.354;2023-06-22T16:07:24;30.80;;;20.53;;
16954;SDS011;8594;52.052;8.354;2023-06-22T16:09:52;30.37;;;21.27;;
16954;SDS011;8594;52.052;8.354;2023-06-22T16:12:20;29.60;;;20.33;;
16954;SDS011;8594;52.052;8.354;2023-06-22T16:14:47;30.60;;;19.77;;
16954;SDS011;8594;52.052;8.354;2023-06-22T16:17:14;25.40;;;19.87;;
16954;SDS011;8594;52.052;8.354;2023-06-22T16:19:40;29.73;;;20.67;;
16954;SDS011;8594;52.052;8.354;2023-06-22T16:22:07;27.80;;;20.60;;
16954;SDS011;8594;52.052;8.354;2023-06-22T16:24:34;29.30;;;21.40;;
16954;SDS011;8594;52.052;8.354;2023-06-22T16:27:01;29.63;;;21.90;;
16954;SDS011;8594;52.052;8.354;2023-06-22T16:29:30;28.90;;;21.43;;
16954;SDS011;8594;52.052;8.354;2023-06-22T16:31:56;30.90;;;22.33;;
16954;SDS011;8594;52.052;8.354;2023-06-22T16:34:23;31.93;;;22.53;;
16954;SDS011;8594;52.052;8.354;2023-06-22T16:36:50;31.23;;;22.87;;
16954;SDS011;8594;52.052;8.354;2023-06-22T16:39:17;32.87;;;23.60;;
16954;SDS011;8594;52.052;8.354;2023-06-22T16:41:44;35.77;;;23.93;;
16954;SDS011;8594;52.052;8.354;2023-06-22T16:44:10;31.43;;;23.47;;
16954;SDS011;8594;52.052;8.354;2023-06-22T16:46:39;31.50;;;22.63;;
16954;SDS011;8594;52.052;8.354;2023-06-22T16:49:05;29.83;;;22.20;;
16954;SDS011;8594;52.052;8.354;2023-06-22T16:51:32;34.63;;;23.43;;
16954;SDS011;8594;52.052;8.354;2023-06-22T16:53:59;30.80;;;21.83;;
16954;SDS011;8594;52.052;8.354;2023-06-22T16:56:26;29.03;;;21.10;;
16954;SDS011;8594;52.052;8.354;2023-06-22T16:58:55;32.93;;;21.20;;
16954;SDS011;8594;52.052;8.354;2023-06-22T17:01:24;28.53;;;21.10;;
16954;SDS011;8594;52.052;8.354;2023-06-22T17:03:55;31.60;;;20.83;;
16954;SDS011;8594;52.052;8.354;2023-06-22T17:06:30;29.53;;;21.13;;
16954;SDS011;8594;52.052;8.354;2023-06-22T17:08:58;27.07;;;19.83;;
16954;SDS011;8594;52.052;8.354;2023-06-22T17:11:28;30.23;;;20.63;;
16954;SDS011;8594;52.052;8.354;2023-06-22T17:13:56;31.50;;;20.93;;
16954;SDS011;8594;52.052;8.354;2023-06-22T17:16:24;28.00;;;21.87;;
16954;SDS011;8594;52.052;8.354;2023-06-22T17:18:57;30.43;;;20.97;;
16954;SDS011;8594;52.052;8.354;2023-06-22T17:21:28;29.17;;;21.40;;
16954;SDS011;8594;52.052;8.354;2023-06-22T17:23:58;29.23;;;22.20;;
16954;SDS011;8594;52.052;8.354;2023-06-22T17:26:27;33.10;;;23.00;;
16954;SDS011;8594;52.052;8.354;2023-06-22T17:28:56;39.37;;;24.77;;
16954;SDS011;8594;52.052;8.354;2023-06-22T17:31:26;34.80;;;25.10;;
16954;SDS011;8594;52.052;8.354;2023-06-22T17:34:07;37.10;;;25.93;;
16954;SDS011;8594;52.052;8.354;2023-06-22T17:36:41;35.30;;;25.87;;
16954;SDS011;8594;52.052;8.354;2023-06-22T17:39:10;36.70;;;25.67;;
16954;SDS011;8594;52.052;8.354;2023-06-22T17:41:39;35.17;;;25.37;;
16954;SDS011;8594;52.052;8.354;2023-06-22T17:44:08;34.37;;;26.27;;
16954;SDS011;8594;52.052;8.354;2023-06-22T17:46:38;36.97;;;26.47;;
16954;SDS011;8594;52.052;8.354;2023-06-22T17:49:07;43.40;;;27.03;;
16954;SDS011;8594;52.052;8.354;2023-06-22T17:51:35;37.90;;;26.97;;
16954;SDS011;8594;52.052;8.354;2023-06-22T17:54:05;39.03;;;27.67;;
16954;SDS011;8594;52.052;8.354;2023-06-22T17:56:32;35.67;;;26.83;;
16954;SDS011;8594;52.052;8.354;2023-06-22T17:58:59;40.23;;;27.37;;
16954;SDS011;8594;52.052;8.354;2023-06-22T18:01:30;33.73;;;24.90;;
16954;SDS011;8594;52.052;8.354;2023-06-22T18:04:00;39.57;;;27.20;;
16954;SDS011;8594;52.052;8.354;2023-06-22T18:06:34;33.63;;;25.03;;
16954;SDS011;8594;52.052;8.354;2023-06-22T18:09:03;36.43;;;26.80;;
16954;SDS011;8594;52.052;8.354;2023-06-22T18:11:32;36.90;;;26.73;;
16954;SDS011;8594;52.052;8.354;2023-06-22T18:14:01;36.53;;;27.73;;
16954;SDS011;8594;52.052;8.354;2023-06-22T18:16:30;41.33;;;29.97;;
16954;SDS011;8594;52.052;8.354;2023-06-22T18:19:00;42.93;;;30.70;;
16954;SDS011;8594;52.052;8.354;2023-06-22T18:21:28;45.20;;;31.40;;
16954;SDS011;8594;52.052;8.354;2023-06-22T18:23:57;43.23;;;30.33;;
16954;SDS011;8594;52.052;8.354;2023-06-22T18:26:25;40.73;;;29.80;;
16954;SDS011;8594;52.052;8.354;2023-06-22T18:28:53;46.77;;;32.87;;
16954;SDS011;8594;52.052;8.354;2023-06-22T18:31:22;40.00;;;31.10;;
16954;SDS011;8594;52.052;8.354;2023-06-22T18:33:51;40.47;;;30.67;;
16954;SDS011;8594;52.052;8.354;2023-06-22T18:36:21;47.17;;;32.00;;
16954;SDS011;8594;52.052;8.354;2023-06-22T18:38:52;41.27;;;31.73;;
16954;SDS011;8594;52.052;8.354;2023-06-22T18:41:23;41.23;;;30.57;;
16954;SDS011;8594;52.052;8.354;2023-06-22T18:43:59;42.83;;;32.10;;
16954;SDS011;8594;52.052;8.354;2023-06-22T18:46:33;44.43;;;31.00;;
16954;SDS011;8594;52.052;8.354;2023-06-22T18:49:02;40.60;;;31.00;;
16954;SDS011;8594;52.052;8.354;2023-06-22T18:51:51;40.47;;;30.40;;
16954;SDS011;8594;52.052;8.354;2023-06-22T18:54:20;38.13;;;29.90;;
16954;SDS011;8594;52.052;8.354;2023-06-22T18:56:57;41.43;;;30.50;;
16954;SDS011;8594;52.052;8.354;2023-06-22T18:59:41;38.57;;;29.03;;
16954;SDS011;8594;52.052;8.354;2023-06-22T19:02:14;41.67;;;29.17;;
16954;SDS011;8594;52.052;8.354;2023-06-22T19:05:04;37.90;;;28.97;;
16954;SDS011;8594;52.052;8.354;2023-06-22T19:10:38;41.53;;;31.00;;
16954;SDS011;8594;52.052;8.354;2023-06-22T19:16:28;41.37;;;30.17;;
16954;SDS011;8594;52.052;8.354;2023-06-22T19:22:00;38.67;;;29.33;;
16954;SDS011;8594;52.052;8.354;2023-06-22T19:24:29;36.97;;;28.77;;
16954;SDS011;8594;52.052;8.354;2023-06-22T19:26:57;41.10;;;31.17;;
16954;SDS011;8594;52.052;8.354;2023-06-22T19:32:38;43.47;;;32.10;;
16954;SDS011;8594;52.052;8.354;2023-06-22T19:35:15;37.00;;;28.83;;
16954;SDS011;8594;52.052;8.354;2023-06-22T19:37:56;40.20;;;30.03;;
16954;SDS011;8594;52.052;8.354;2023-06-22T19:40:40;45.33;;;31.90;;
16954;SDS011;8594;52.052;8.354;2023-06-22T19:43:17;41.97;;;30.90;;
16954;SDS011;8594;52.052;8.354;2023-06-22T19:49:33;39.37;;;28.67;;
16954;SDS011;8594;52.052;8.354;2023-06-22T19:52:33;41.50;;;30.47;;
16954;SDS011;8594;52.052;8.354;2023-06-22T19:55:08;42.63;;;32.33;;
16954;SDS011;8594;52.052;8.354;2023-06-22T19:57:42;40.33;;;30.77;;
16954;SDS011;8594;52.052;8.354;2023-06-22T20:00:21;43.17;;;31.63;;
16954;SDS011;8594;52.052;8.354;2023-06-22T20:06:35;42.47;;;31.97;;
16954;SDS011;8594;52.052;8.354;2023-06-22T20:10:05;42.93;;;30.40;;
